METAR Data
IDs: Format: Raw Decoded Include TAF

Data at: 2038 UTC 02 Oct 2022

METAR for:KSPB (Scappoose Ind Airpar, OR, US)
Text:KSPB 021953Z AUTO 00000KT 10SM CLR 29/12 A2993 RMK AO2 SLP133 T02890117
Temperature: 28.9°C ( 84°F)
Dewpoint: 11.7°C ( 53°F) [RH = 35%]
Pressure (altimeter):29.93 inches Hg (1013.6 mb) [Sea level pressure: 1013.3 mb]
Winds:calm
Visibility:10 or more sm (16+ km)
Ceiling:at least 12,000 feet AGL
Clouds:sky clear below 12,000 feet AGL
QC Flag:automated observation with no human augmentation